Westfield, Wisconsin
Current Conditions -  °F | °C
As of 4:56 PM on Saturday 25 Oct 2014 (Local Time) from KY50 Reporting Station
Overcast Overcast  
Wind Chill: 17°   Ceiling: 100
Heat Index: 17°   Visibility: 10mi
Dew Point: -3°   Wind: 15mph
Humidity: 26%   Direction: 300°WNW
Pressure: 29.91"   Gusts: 24mph
Location:  43.88°N, 89.49°W
Report Text: KY50 252156Z AUTO 30013G21KT 10SM OVC001 17/M03 A2991 RMK AO2 TSNO T01721027 SLP125
Loading
Personal Weather Stations






























Interactive Weather Map
Tropical Storm Tracking
New forecast layout! Learn more

10-Day Weather Forecast

Advertisements
Track Severe Weather on mobile